sensor_id;sensor_type;location;lat;lon;timestamp;pressure;altitude;pressure_sealevel;temperature;humidity
47082;BME280;33066;49.296;14.470;2023-07-20T00:00:32;96532.95;;;25.96;32.24
47082;BME280;33066;49.296;14.470;2023-07-20T00:03:10;96529.06;;;25.93;32.19
47082;BME280;33066;49.296;14.470;2023-07-20T00:05:24;96524.09;;;25.68;32.01
47082;BME280;33066;49.296;14.470;2023-07-20T00:07:49;96518.62;;;26.17;31.96
47082;BME280;33066;49.296;14.470;2023-07-20T00:10:15;96514.97;;;25.91;31.99
47082;BME280;33066;49.296;14.470;2023-07-20T00:12:41;96515.19;;;25.63;32.08
47082;BME280;33066;49.296;14.470;2023-07-20T00:15:07;96513.07;;;25.80;32.57
47082;BME280;33066;49.296;14.470;2023-07-20T00:17:32;96509.57;;;25.49;33.21
47082;BME280;33066;49.296;14.470;2023-07-20T00:19:58;96511.89;;;25.91;33.38
47082;BME280;33066;49.296;14.470;2023-07-20T00:22:24;96519.88;;;25.31;33.63
47082;BME280;33066;49.296;14.470;2023-07-20T00:24:50;96524.46;;;25.21;33.54
47082;BME280;33066;49.296;14.470;2023-07-20T00:27:15;96529.28;;;25.64;33.58
47082;BME280;33066;49.296;14.470;2023-07-20T00:29:42;96533.49;;;25.43;33.33
47082;BME280;33066;49.296;14.470;2023-07-20T00:32:07;96531.76;;;25.41;33.21
47082;BME280;33066;49.296;14.470;2023-07-20T00:34:33;96528.72;;;25.63;33.19
47082;BME280;33066;49.296;14.470;2023-07-20T00:36:59;96534.38;;;25.60;33.46
47082;BME280;33066;49.296;14.470;2023-07-20T00:39:25;96531.91;;;25.25;33.67
47082;BME280;33066;49.296;14.470;2023-07-20T00:41:51;96532.60;;;25.44;33.83
47082;BME280;33066;49.296;14.470;2023-07-20T00:44:16;96534.52;;;25.39;34.05
47082;BME280;33066;49.296;14.470;2023-07-20T00:46:42;96540.40;;;25.10;34.23
47082;BME280;33066;49.296;14.470;2023-07-20T00:49:08;96545.06;;;25.25;34.31
47082;BME280;33066;49.296;14.470;2023-07-20T00:51:34;96538.30;;;25.20;34.32
47082;BME280;33066;49.296;14.470;2023-07-20T00:53:59;96537.53;;;25.17;34.42
47082;BME280;33066;49.296;14.470;2023-07-20T00:56:25;96540.32;;;25.14;34.47
47082;BME280;33066;49.296;14.470;2023-07-20T00:58:51;96537.19;;;24.80;34.47
47082;BME280;33066;49.296;14.470;2023-07-20T01:01:17;96536.70;;;25.50;34.37
47082;BME280;33066;49.296;14.470;2023-07-20T01:03:42;96537.28;;;24.96;34.30
47082;BME280;33066;49.296;14.470;2023-07-20T01:06:18;96537.99;;;25.20;34.22
47082;BME280;33066;49.296;14.470;2023-07-20T01:08:38;96534.52;;;25.01;34.04
47082;BME280;33066;49.296;14.470;2023-07-20T01:11:04;96535.60;;;25.01;34.15
47082;BME280;33066;49.296;14.470;2023-07-20T01:13:25;96541.57;;;24.96;34.27
47082;BME280;33066;49.296;14.470;2023-07-20T01:15:49;96540.61;;;25.11;34.47
47082;BME280;33066;49.296;14.470;2023-07-20T01:18:13;96538.60;;;24.78;34.65
47082;BME280;33066;49.296;14.470;2023-07-20T01:20:39;96539.18;;;24.67;34.85
47082;BME280;33066;49.296;14.470;2023-07-20T01:23:24;96545.10;;;24.57;35.02
47082;BME280;33066;49.296;14.470;2023-07-20T01:30:35;96549.07;;;24.83;35.23
47082;BME280;33066;49.296;14.470;2023-07-20T01:32:47;96546.34;;;24.28;35.26
47082;BME280;33066;49.296;14.470;2023-07-20T01:35:12;96550.84;;;24.42;35.39
47082;BME280;33066;49.296;14.470;2023-07-20T01:37:35;96548.23;;;24.32;35.44
47082;BME280;33066;49.296;14.470;2023-07-20T01:40:00;96547.15;;;24.29;35.42
47082;BME280;33066;49.296;14.470;2023-07-20T01:42:25;96550.23;;;24.49;35.50
47082;BME280;33066;49.296;14.470;2023-07-20T01:44:51;96546.45;;;24.41;35.68
47082;BME280;33066;49.296;14.470;2023-07-20T01:47:15;96539.84;;;24.18;35.63
47082;BME280;33066;49.296;14.470;2023-07-20T01:49:40;96536.37;;;24.18;35.63
47082;BME280;33066;49.296;14.470;2023-07-20T01:52:06;96539.11;;;23.96;35.57
47082;BME280;33066;49.296;14.470;2023-07-20T01:54:31;96535.87;;;24.17;35.54
47082;BME280;33066;49.296;14.470;2023-07-20T01:56:56;96535.81;;;24.40;35.58
47082;BME280;33066;49.296;14.470;2023-07-20T01:59:21;96539.86;;;24.20;35.55
47082;BME280;33066;49.296;14.470;2023-07-20T02:01:46;96545.10;;;24.47;35.54
47082;BME280;33066;49.296;14.470;2023-07-20T02:04:12;96543.19;;;24.22;35.60
47082;BME280;33066;49.296;14.470;2023-07-20T02:06:37;96550.20;;;24.41;35.71
47082;BME280;33066;49.296;14.470;2023-07-20T02:09:02;96553.50;;;24.38;35.75
47082;BME280;33066;49.296;14.470;2023-07-20T02:11:27;96554.51;;;24.38;35.76
47082;BME280;33066;49.296;14.470;2023-07-20T02:13:52;96551.65;;;23.91;35.85
47082;BME280;33066;49.296;14.470;2023-07-20T02:16:17;96557.30;;;24.18;35.71
47082;BME280;33066;49.296;14.470;2023-07-20T02:18:42;96556.64;;;24.13;35.74
47082;BME280;33066;49.296;14.470;2023-07-20T02:21:08;96555.01;;;24.28;35.82
47082;BME280;33066;49.296;14.470;2023-07-20T02:23:33;96548.66;;;24.21;35.80
47082;BME280;33066;49.296;14.470;2023-07-20T02:25:58;96549.61;;;24.40;35.79
47082;BME280;33066;49.296;14.470;2023-07-20T02:28:24;96553.86;;;24.18;35.76
47082;BME280;33066;49.296;14.470;2023-07-20T02:30:49;96559.46;;;23.94;35.74
47082;BME280;33066;49.296;14.470;2023-07-20T02:33:14;96564.70;;;24.11;35.72
47082;BME280;33066;49.296;14.470;2023-07-20T02:35:40;96567.17;;;24.10;35.80
47082;BME280;33066;49.296;14.470;2023-07-20T02:38:04;96566.25;;;23.90;35.78
47082;BME280;33066;49.296;14.470;2023-07-20T02:40:29;96568.16;;;24.14;35.75
47082;BME280;33066;49.296;14.470;2023-07-20T02:42:54;96579.15;;;24.11;35.77
47082;BME280;33066;49.296;14.470;2023-07-20T02:45:19;96582.39;;;24.06;35.80
47082;BME280;33066;49.296;14.470;2023-07-20T02:47:44;96585.06;;;23.97;35.85
47082;BME280;33066;49.296;14.470;2023-07-20T02:50:09;96584.80;;;23.95;35.83
47082;BME280;33066;49.296;14.470;2023-07-20T02:52:34;96582.13;;;23.94;35.84
47082;BME280;33066;49.296;14.470;2023-07-20T02:54:59;96582.08;;;23.95;35.86
47082;BME280;33066;49.296;14.470;2023-07-20T02:57:24;96579.13;;;23.91;35.90
47082;BME280;33066;49.296;14.470;2023-07-20T02:59:49;96576.19;;;23.91;35.90
47082;BME280;33066;49.296;14.470;2023-07-20T03:02:15;96571.76;;;24.09;35.95
47082;BME280;33066;49.296;14.470;2023-07-20T03:04:40;96575.25;;;23.81;35.96
47082;BME280;33066;49.296;14.470;2023-07-20T03:07:06;96578.69;;;22.82;35.90
47082;BME280;33066;49.296;14.470;2023-07-20T03:09:31;96585.82;;;24.24;34.78
47082;BME280;33066;49.296;14.470;2023-07-20T03:13:00;96585.25;;;24.29;34.45
47082;BME280;33066;49.296;14.470;2023-07-20T03:15:25;96584.22;;;24.33;34.77
47082;BME280;33066;49.296;14.470;2023-07-20T03:17:51;96584.41;;;24.00;35.12
47082;BME280;33066;49.296;14.470;2023-07-20T03:20:16;96587.88;;;24.05;35.37
47082;BME280;33066;49.296;14.470;2023-07-20T03:22:41;96586.24;;;23.78;35.59
47082;BME280;33066;49.296;14.470;2023-07-20T03:25:07;96588.29;;;23.80;35.53
47082;BME280;33066;49.296;14.470;2023-07-20T03:27:31;96588.53;;;23.79;35.57
47082;BME280;33066;49.296;14.470;2023-07-20T03:29:56;96583.48;;;23.94;35.68
47082;BME280;33066;49.296;14.470;2023-07-20T03:32:22;96588.08;;;23.66;35.72
47082;BME280;33066;49.296;14.470;2023-07-20T03:34:47;96589.67;;;24.07;35.74
47082;BME280;33066;49.296;14.470;2023-07-20T03:37:13;96592.96;;;23.76;35.77
47082;BME280;33066;49.296;14.470;2023-07-20T03:39:37;96595.20;;;23.71;35.88
47082;BME280;33066;49.296;14.470;2023-07-20T03:42:03;96596.06;;;23.72;35.93
47082;BME280;33066;49.296;14.470;2023-07-20T03:44:27;96594.73;;;23.52;35.90
47082;BME280;33066;49.296;14.470;2023-07-20T03:46:53;96598.35;;;23.54;35.90
47082;BME280;33066;49.296;14.470;2023-07-20T03:49:17;96599.64;;;23.53;35.95
47082;BME280;33066;49.296;14.470;2023-07-20T03:51:43;96598.20;;;23.55;36.01
47082;BME280;33066;49.296;14.470;2023-07-20T03:54:09;96597.10;;;23.61;35.92
47082;BME280;33066;49.296;14.470;2023-07-20T03:56:34;96599.51;;;23.63;35.89
47082;BME280;33066;49.296;14.470;2023-07-20T03:58:59;96603.38;;;23.88;35.95
47082;BME280;33066;49.296;14.470;2023-07-20T04:01:24;96602.83;;;23.68;35.94
47082;BME280;33066;49.296;14.470;2023-07-20T04:03:49;96593.87;;;23.71;35.71
47082;BME280;33066;49.296;14.470;2023-07-20T04:06:14;96594.83;;;23.69;35.51
47082;BME280;33066;49.296;14.470;2023-07-20T04:08:39;96600.52;;;23.42;35.29
47082;BME280;33066;49.296;14.470;2023-07-20T04:11:04;96601.15;;;23.72;35.23
47082;BME280;33066;49.296;14.470;2023-07-20T04:13:30;96599.85;;;23.69;34.99
47082;BME280;33066;49.296;14.470;2023-07-20T04:15:54;96601.71;;;23.66;35.12
47082;BME280;33066;49.296;14.470;2023-07-20T04:18:19;96597.37;;;23.74;35.07
47082;BME280;33066;49.296;14.470;2023-07-20T04:20:45;96596.99;;;23.77;35.00
47082;BME280;33066;49.296;14.470;2023-07-20T04:23:09;96601.95;;;23.81;34.99
47082;BME280;33066;49.296;14.470;2023-07-20T04:25:35;96600.99;;;23.82;34.97
47082;BME280;33066;49.296;14.470;2023-07-20T04:28:00;96602.10;;;23.89;35.19
47082;BME280;33066;49.296;14.470;2023-07-20T04:30:25;96605.02;;;24.19;35.23
47082;BME280;33066;49.296;14.470;2023-07-20T04:32:50;96609.22;;;24.19;35.18
47082;BME280;33066;49.296;14.470;2023-07-20T04:35:26;96608.43;;;23.91;35.18
47082;BME280;33066;49.296;14.470;2023-07-20T04:37:41;96612.36;;;23.88;35.14
47082;BME280;33066;49.296;14.470;2023-07-20T04:40:08;96613.22;;;23.83;35.21
47082;BME280;33066;49.296;14.470;2023-07-20T04:42:32;96617.66;;;24.17;35.34
47082;BME280;33066;49.296;14.470;2023-07-20T04:44:58;96619.23;;;24.03;35.51
47082;BME280;33066;49.296;14.470;2023-07-20T04:47:23;96623.14;;;23.98;35.23
47082;BME280;33066;49.296;14.470;2023-07-20T04:49:48;96623.31;;;24.00;35.16
47082;BME280;33066;49.296;14.470;2023-07-20T04:52:13;96622.65;;;24.05;35.16
47082;BME280;33066;49.296;14.470;2023-07-20T04:54:38;96620.80;;;24.10;35.02
47082;BME280;33066;49.296;14.470;2023-07-20T04:57:09;96618.25;;;24.21;35.05
47082;BME280;33066;49.296;14.470;2023-07-20T04:59:28;96621.99;;;24.40;34.84
47082;BME280;33066;49.296;14.470;2023-07-20T05:01:53;96626.98;;;24.49;34.90
47082;BME280;33066;49.296;14.470;2023-07-20T05:04:19;96632.13;;;24.55;34.96
47082;BME280;33066;49.296;14.470;2023-07-20T05:06:44;96634.98;;;24.61;35.03
47082;BME280;33066;49.296;14.470;2023-07-20T05:09:10;96637.60;;;24.47;34.94
47082;BME280;33066;49.296;14.470;2023-07-20T05:11:35;96640.29;;;24.75;34.79
47082;BME280;33066;49.296;14.470;2023-07-20T05:14:00;96638.78;;;24.52;34.75
47082;BME280;33066;49.296;14.470;2023-07-20T05:16:26;96632.28;;;24.78;34.98
47082;BME280;33066;49.296;14.470;2023-07-20T05:18:51;96624.94;;;24.72;34.92
47082;BME280;33066;49.296;14.470;2023-07-20T05:21:16;96620.85;;;25.07;34.83
47082;BME280;33066;49.296;14.470;2023-07-20T05:23:41;96622.58;;;24.93;34.88
47082;BME280;33066;49.296;14.470;2023-07-20T05:26:06;96626.96;;;24.78;34.63
47082;BME280;33066;49.296;14.470;2023-07-20T05:28:31;96626.30;;;24.74;34.43
47082;BME280;33066;49.296;14.470;2023-07-20T05:30:56;96628.47;;;24.84;34.38
47082;BME280;33066;49.296;14.470;2023-07-20T05:33:21;96632.58;;;24.82;34.28
47082;BME280;33066;49.296;14.470;2023-07-20T05:35:46;96632.01;;;24.81;34.18
47082;BME280;33066;49.296;14.470;2023-07-20T05:38:11;96631.03;;;24.88;34.21
47082;BME280;33066;49.296;14.470;2023-07-20T05:40:37;96624.14;;;24.93;33.99
47082;BME280;33066;49.296;14.470;2023-07-20T05:43:02;96624.27;;;24.98;34.14
47082;BME280;33066;49.296;14.470;2023-07-20T05:45:28;96622.02;;;25.50;33.96
47082;BME280;33066;49.296;14.470;2023-07-20T05:47:53;96617.54;;;25.09;33.93
47082;BME280;33066;49.296;14.470;2023-07-20T05:50:18;96617.68;;;25.18;33.98
47082;BME280;33066;49.296;14.470;2023-07-20T05:52:43;96618.67;;;25.38;33.33
47082;BME280;33066;49.296;14.470;2023-07-20T05:55:09;96624.39;;;25.49;33.17
47082;BME280;33066;49.296;14.470;2023-07-20T05:57:35;96627.08;;;25.37;33.20
47082;BME280;33066;49.296;14.470;2023-07-20T06:00:01;96627.35;;;25.41;33.18
47082;BME280;33066;49.296;14.470;2023-07-20T06:02:27;96630.55;;;25.59;33.19
47082;BME280;33066;49.296;14.470;2023-07-20T06:04:52;96630.04;;;25.26;33.18
47082;BME280;33066;49.296;14.470;2023-07-20T06:07:17;96628.57;;;25.55;33.22
47082;BME280;33066;49.296;14.470;2023-07-20T06:09:43;96628.56;;;25.44;33.15
47082;BME280;33066;49.296;14.470;2023-07-20T06:12:09;96625.84;;;25.42;33.09
47082;BME280;33066;49.296;14.470;2023-07-20T06:14:35;96630.24;;;25.27;33.42
47082;BME280;33066;49.296;14.470;2023-07-20T06:17:01;96629.61;;;25.40;33.48
47082;BME280;33066;49.296;14.470;2023-07-20T06:19:26;96631.79;;;25.57;33.36
47082;BME280;33066;49.296;14.470;2023-07-20T06:21:52;96628.51;;;25.66;33.61
47082;BME280;33066;49.296;14.470;2023-07-20T06:24:18;96638.20;;;25.74;33.69
47082;BME280;33066;49.296;14.470;2023-07-20T06:26:44;96642.53;;;25.83;33.29
47082;BME280;33066;49.296;14.470;2023-07-20T06:29:09;96641.20;;;25.36;33.42
47082;BME280;33066;49.296;14.470;2023-07-20T06:31:35;96643.69;;;25.73;33.32
47082;BME280;33066;49.296;14.470;2023-07-20T06:34:00;96639.41;;;25.53;33.27
47082;BME280;33066;49.296;14.470;2023-07-20T06:36:26;96641.58;;;25.84;33.07
47082;BME280;33066;49.296;14.470;2023-07-20T06:38:51;96648.28;;;25.68;33.15
47082;BME280;33066;49.296;14.470;2023-07-20T06:41:17;96653.12;;;25.91;32.82
47082;BME280;33066;49.296;14.470;2023-07-20T06:43:42;96652.16;;;25.78;32.99
47082;BME280;33066;49.296;14.470;2023-07-20T06:46:08;96650.95;;;25.69;33.00
47082;BME280;33066;49.296;14.470;2023-07-20T06:48:34;96649.08;;;25.84;32.68
47082;BME280;33066;49.296;14.470;2023-07-20T06:51:00;96644.71;;;25.73;32.35
47082;BME280;33066;49.296;14.470;2023-07-20T06:53:25;96644.92;;;25.29;32.28
47082;BME280;33066;49.296;14.470;2023-07-20T06:55:51;96648.01;;;25.59;32.22
47082;BME280;33066;49.296;14.470;2023-07-20T06:58:17;96646.68;;;25.68;32.13
47082;BME280;33066;49.296;14.470;2023-07-20T07:00:43;96646.42;;;25.33;31.89
47082;BME280;33066;49.296;14.470;2023-07-20T07:03:09;96643.03;;;25.59;32.12
47082;BME280;33066;49.296;14.470;2023-07-20T07:05:36;96650.02;;;25.78;31.85
47082;BME280;33066;49.296;14.470;2023-07-20T07:08:00;96649.49;;;25.78;31.67
47082;BME280;33066;49.296;14.470;2023-07-20T07:10:27;96650.16;;;25.74;31.97
47082;BME280;33066;49.296;14.470;2023-07-20T07:12:52;96647.71;;;25.81;31.74
47082;BME280;33066;49.296;14.470;2023-07-20T07:15:18;96647.79;;;25.93;31.73
47082;BME280;33066;49.296;14.470;2023-07-20T07:17:44;96647.45;;;25.59;31.74
47082;BME280;33066;49.296;14.470;2023-07-20T07:20:09;96645.97;;;26.26;31.63
47082;BME280;33066;49.296;14.470;2023-07-20T07:22:35;96641.86;;;25.85;31.29
47082;BME280;33066;49.296;14.470;2023-07-20T07:25:01;96639.39;;;26.01;31.31
47082;BME280;33066;49.296;14.470;2023-07-20T07:27:26;96639.79;;;25.88;31.11
47082;BME280;33066;49.296;14.470;2023-07-20T07:29:52;96637.14;;;25.97;31.36
47082;BME280;33066;49.296;14.470;2023-07-20T07:32:18;96633.93;;;25.72;31.37
47082;BME280;33066;49.296;14.470;2023-07-20T07:34:44;96635.61;;;26.12;31.33
47082;BME280;33066;49.296;14.470;2023-07-20T07:37:10;96638.81;;;25.85;31.60
47082;BME280;33066;49.296;14.470;2023-07-20T07:39:36;96641.18;;;26.12;31.58
47082;BME280;33066;49.296;14.470;2023-07-20T07:42:01;96641.31;;;26.12;31.15
47082;BME280;33066;49.296;14.470;2023-07-20T07:44:27;96639.79;;;26.09;30.81
47082;BME280;33066;49.296;14.470;2023-07-20T07:46:53;96639.15;;;26.13;30.66
47082;BME280;33066;49.296;14.470;2023-07-20T07:49:19;96636.79;;;26.22;30.43
47082;BME280;33066;49.296;14.470;2023-07-20T07:51:45;96635.17;;;26.21;30.05
47082;BME280;33066;49.296;14.470;2023-07-20T07:54:11;96633.50;;;26.19;30.09
47082;BME280;33066;49.296;14.470;2023-07-20T07:56:36;96632.28;;;26.21;30.07
47082;BME280;33066;49.296;14.470;2023-07-20T07:59:02;96630.79;;;26.19;30.24
47082;BME280;33066;49.296;14.470;2023-07-20T08:01:29;96635.05;;;26.44;30.08
47082;BME280;33066;49.296;14.470;2023-07-20T08:03:54;96633.91;;;26.11;30.22
47082;BME280;33066;49.296;14.470;2023-07-20T08:06:20;96635.37;;;26.27;30.00
47082;BME280;33066;49.296;14.470;2023-07-20T08:08:46;96630.93;;;26.38;30.27
47082;BME280;33066;49.296;14.470;2023-07-20T08:11:11;96629.67;;;26.29;30.26
47082;BME280;33066;49.296;14.470;2023-07-20T08:13:38;96630.46;;;26.57;30.22
47082;BME280;33066;49.296;14.470;2023-07-20T08:16:03;96633.41;;;26.40;30.36
47082;BME280;33066;49.296;14.470;2023-07-20T08:18:29;96645.54;;;26.55;30.83
47082;BME280;33066;49.296;14.470;2023-07-20T08:20:55;96653.82;;;26.60;31.50
47082;BME280;33066;49.296;14.470;2023-07-20T08:23:20;96670.31;;;26.02;33.49
47082;BME280;33066;49.296;14.470;2023-07-20T08:25:46;96679.24;;;26.20;34.58
47082;BME280;33066;49.296;14.470;2023-07-20T08:28:14;96669.62;;;26.00;35.61
47082;BME280;33066;49.296;14.470;2023-07-20T08:30:42;96682.58;;;25.56;36.06
47082;BME280;33066;49.296;14.470;2023-07-20T08:33:04;96691.03;;;25.65;36.26
47082;BME280;33066;49.296;14.470;2023-07-20T08:35:29;96691.85;;;25.39;36.35
47082;BME280;33066;49.296;14.470;2023-07-20T08:37:55;96688.88;;;25.61;37.06
47082;BME280;33066;49.296;14.470;2023-07-20T08:40:21;96682.81;;;25.69;36.30
47082;BME280;33066;49.296;14.470;2023-07-20T08:42:47;96680.01;;;25.89;35.82
47082;BME280;33066;49.296;14.470;2023-07-20T08:45:13;96675.18;;;25.67;36.07
47082;BME280;33066;49.296;14.470;2023-07-20T08:47:39;96672.16;;;25.74;35.89
47082;BME280;33066;49.296;14.470;2023-07-20T08:50:06;96668.90;;;26.03;35.93
47082;BME280;33066;49.296;14.470;2023-07-20T08:52:33;96667.94;;;26.19;35.30
47082;BME280;33066;49.296;14.470;2023-07-20T08:54:56;96664.59;;;26.35;34.92
47082;BME280;33066;49.296;14.470;2023-07-20T08:57:22;96660.62;;;26.53;34.78
47082;BME280;33066;49.296;14.470;2023-07-20T08:59:48;96661.89;;;26.41;34.01
47082;BME280;33066;49.296;14.470;2023-07-20T09:02:16;96670.98;;;26.45;33.74
47082;BME280;33066;49.296;14.470;2023-07-20T09:04:40;96668.99;;;26.44;33.70
47082;BME280;33066;49.296;14.470;2023-07-20T09:07:06;96664.06;;;26.28;33.28
47082;BME280;33066;49.296;14.470;2023-07-20T09:09:31;96668.34;;;26.14;32.98
47082;BME280;33066;49.296;14.470;2023-07-20T09:11:57;96665.41;;;26.75;33.19
47082;BME280;33066;49.296;14.470;2023-07-20T09:14:23;96668.21;;;26.63;32.80
47082;BME280;33066;49.296;14.470;2023-07-20T09:16:50;96674.07;;;26.70;31.96
47082;BME280;33066;49.296;14.470;2023-07-20T09:19:15;96668.45;;;26.51;32.48
47082;BME280;33066;49.296;14.470;2023-07-20T09:21:43;96664.60;;;26.51;32.77
47082;BME280;33066;49.296;14.470;2023-07-20T09:24:07;96665.43;;;26.61;32.82
47082;BME280;33066;49.296;14.470;2023-07-20T09:26:40;96660.61;;;26.68;32.46
47082;BME280;33066;49.296;14.470;2023-07-20T09:28:58;96657.19;;;26.75;31.94
47082;BME280;33066;49.296;14.470;2023-07-20T09:31:24;96659.70;;;26.88;31.39
47082;BME280;33066;49.296;14.470;2023-07-20T09:33:52;96652.80;;;26.81;29.78
47082;BME280;33066;49.296;14.470;2023-07-20T09:36:16;96657.78;;;26.91;29.81
47082;BME280;33066;49.296;14.470;2023-07-20T09:38:42;96654.91;;;26.76;28.92
47082;BME280;33066;49.296;14.470;2023-07-20T09:41:07;96656.98;;;26.85;29.78
47082;BME280;33066;49.296;14.470;2023-07-20T09:43:34;96650.68;;;26.90;30.19
47082;BME280;33066;49.296;14.470;2023-07-20T09:45:59;96648.89;;;26.86;29.71
47082;BME280;33066;49.296;14.470;2023-07-20T09:48:25;96649.21;;;26.73;30.07
47082;BME280;33066;49.296;14.470;2023-07-20T09:50:51;96653.64;;;27.30;29.37
47082;BME280;33066;49.296;14.470;2023-07-20T09:53:17;96649.13;;;27.32;29.52
47082;BME280;33066;49.296;14.470;2023-07-20T09:55:44;96659.89;;;27.00;29.69
47082;BME280;33066;49.296;14.470;2023-07-20T09:58:09;96657.24;;;26.94;29.04
47082;BME280;33066;49.296;14.470;2023-07-20T10:00:35;96659.11;;;27.37;28.78
47082;BME280;33066;49.296;14.470;2023-07-20T10:03:02;96655.75;;;27.58;28.85
47082;BME280;33066;49.296;14.470;2023-07-20T10:05:27;96646.06;;;27.63;27.98
47082;BME280;33066;49.296;14.470;2023-07-20T10:07:52;96646.18;;;27.43;28.28
47082;BME280;33066;49.296;14.470;2023-07-20T10:10:18;96645.59;;;27.82;27.94
47082;BME280;33066;49.296;14.470;2023-07-20T10:12:44;96642.23;;;27.82;27.82
47082;BME280;33066;49.296;14.470;2023-07-20T10:15:12;96636.18;;;28.23;27.43
47082;BME280;33066;49.296;14.470;2023-07-20T10:17:35;96630.63;;;27.98;27.20
47082;BME280;33066;49.296;14.470;2023-07-20T10:20:01;96632.20;;;28.24;26.68
47082;BME280;33066;49.296;14.470;2023-07-20T10:22:26;96630.36;;;27.95;27.17
47082;BME280;33066;49.296;14.470;2023-07-20T10:24:52;96635.27;;;28.54;27.36
47082;BME280;33066;49.296;14.470;2023-07-20T10:27:17;96622.93;;;28.35;27.13
47082;BME280;33066;49.296;14.470;2023-07-20T10:29:43;96625.50;;;28.81;26.53
47082;BME280;33066;49.296;14.470;2023-07-20T10:32:09;96622.05;;;29.21;26.17
47082;BME280;33066;49.296;14.470;2023-07-20T10:34:34;96621.63;;;29.15;24.77
47082;BME280;33066;49.296;14.470;2023-07-20T10:37:00;96621.87;;;29.09;25.16
47082;BME280;33066;49.296;14.470;2023-07-20T10:39:27;96622.26;;;29.82;24.52
47082;BME280;33066;49.296;14.470;2023-07-20T10:42:00;96610.90;;;30.25;22.19
47082;BME280;33066;49.296;14.470;2023-07-20T10:44:20;96614.80;;;30.19;21.88
47082;BME280;33066;49.296;14.470;2023-07-20T10:46:44;96615.96;;;30.59;21.25
47082;BME280;33066;49.296;14.470;2023-07-20T10:49:10;96610.81;;;30.97;21.20
47082;BME280;33066;49.296;14.470;2023-07-20T10:51:40;96609.01;;;30.95;21.22
47082;BME280;33066;49.296;14.470;2023-07-20T10:54:02;96607.69;;;30.80;20.79
47082;BME280;33066;49.296;14.470;2023-07-20T10:56:27;96613.49;;;29.84;21.00
47082;BME280;33066;49.296;14.470;2023-07-20T10:58:57;96614.62;;;29.58;21.65
47082;BME280;33066;49.296;14.470;2023-07-20T11:01:18;96617.35;;;29.73;20.80
47082;BME280;33066;49.296;14.470;2023-07-20T11:03:49;96614.41;;;30.10;20.05
47082;BME280;33066;49.296;14.470;2023-07-20T11:08:39;96598.45;;;31.32;19.66
47082;BME280;33066;49.296;14.470;2023-07-20T11:13:27;96588.25;;;31.81;18.81
47082;BME280;33066;49.296;14.470;2023-07-20T11:16:03;96574.46;;;31.84;19.09
47082;BME280;33066;49.296;14.470;2023-07-20T11:18:19;96588.74;;;31.12;19.66
47082;BME280;33066;49.296;14.470;2023-07-20T11:20:44;96595.91;;;30.66;19.91
47082;BME280;33066;49.296;14.470;2023-07-20T11:23:10;96583.42;;;31.31;19.71
47082;BME280;33066;49.296;14.470;2023-07-20T11:25:39;96581.49;;;31.44;20.28
47082;BME280;33066;49.296;14.470;2023-07-20T11:28:01;96580.28;;;30.68;19.52
47082;BME280;33066;49.296;14.470;2023-07-20T11:30:27;96587.51;;;30.94;19.27
47082;BME280;33066;49.296;14.470;2023-07-20T11:32:52;96586.44;;;31.22;18.20
47082;BME280;33066;49.296;14.470;2023-07-20T11:35:18;96582.82;;;31.54;18.25
47082;BME280;33066;49.296;14.470;2023-07-20T11:37:44;96574.19;;;32.07;18.15
47082;BME280;33066;49.296;14.470;2023-07-20T11:40:10;96575.53;;;32.37;18.03
47082;BME280;33066;49.296;14.470;2023-07-20T11:42:35;96567.89;;;32.61;18.09
47082;BME280;33066;49.296;14.470;2023-07-20T11:45:02;96565.46;;;32.78;17.51
47082;BME280;33066;49.296;14.470;2023-07-20T11:47:29;96567.07;;;32.77;17.01
47082;BME280;33066;49.296;14.470;2023-07-20T11:49:52;96578.88;;;32.91;17.54
47082;BME280;33066;49.296;14.470;2023-07-20T11:52:18;96569.89;;;33.42;17.25
47082;BME280;33066;49.296;14.470;2023-07-20T11:54:44;96561.75;;;33.79;17.28
47082;BME280;33066;49.296;14.470;2023-07-20T11:57:16;96557.31;;;33.53;16.71
47082;BME280;33066;49.296;14.470;2023-07-20T11:59:35;96558.35;;;33.22;16.94
47082;BME280;33066;49.296;14.470;2023-07-20T12:02:01;96559.71;;;32.86;17.17
47082;BME280;33066;49.296;14.470;2023-07-20T12:04:27;96566.38;;;32.12;17.02
47082;BME280;33066;49.296;14.470;2023-07-20T12:06:53;96567.30;;;31.66;17.28
47082;BME280;33066;49.296;14.470;2023-07-20T12:09:18;96567.87;;;31.64;17.07
47082;BME280;33066;49.296;14.470;2023-07-20T12:11:44;96565.50;;;31.21;17.43
47082;BME280;33066;49.296;14.470;2023-07-20T12:14:10;96566.38;;;31.19;17.24
47082;BME280;33066;49.296;14.470;2023-07-20T12:16:36;96561.37;;;32.27;17.17
47082;BME280;33066;49.296;14.470;2023-07-20T12:19:02;96559.40;;;33.04;16.73
47082;BME280;33066;49.296;14.470;2023-07-20T12:21:27;96559.34;;;33.05;16.49
47082;BME280;33066;49.296;14.470;2023-07-20T12:23:52;96552.88;;;32.52;16.34
47082;BME280;33066;49.296;14.470;2023-07-20T12:26:20;96549.94;;;32.23;16.11
47082;BME280;33066;49.296;14.470;2023-07-20T12:28:44;96542.91;;;33.66;15.54
47082;BME280;33066;49.296;14.470;2023-07-20T12:31:10;96552.48;;;34.00;14.74
47082;BME280;33066;49.296;14.470;2023-07-20T12:33:35;96543.44;;;33.34;14.90
47082;BME280;33066;49.296;14.470;2023-07-20T12:36:01;96553.22;;;32.66;15.54
47082;BME280;33066;49.296;14.470;2023-07-20T12:38:26;96553.35;;;33.48;15.43
47082;BME280;33066;49.296;14.470;2023-07-20T12:40:52;96562.23;;;33.91;15.33
47082;BME280;33066;49.296;14.470;2023-07-20T12:43:18;96552.55;;;34.23;14.78
47082;BME280;33066;49.296;14.470;2023-07-20T12:45:43;96541.82;;;34.74;15.38
47082;BME280;33066;49.296;14.470;2023-07-20T12:48:09;96538.88;;;35.53;13.85
47082;BME280;33066;49.296;14.470;2023-07-20T12:50:35;96534.30;;;35.45;13.33